sensor_id;sensor_type;location;lat;lon;timestamp;P1;durP1;ratioP1;P2;durP2;ratioP2
9773;SDS011;4926;42.670;23.316;2023-06-01T00:00:19;9.18;;;7.95;;
9773;SDS011;4926;42.670;23.316;2023-06-01T00:02:47;13.25;;;8.73;;
9773;SDS011;4926;42.670;23.316;2023-06-01T00:05:19;9.82;;;8.20;;
9773;SDS011;4926;42.670;23.316;2023-06-01T00:07:46;15.13;;;9.43;;
9773;SDS011;4926;42.670;23.316;2023-06-01T00:10:14;11.23;;;9.73;;
9773;SDS011;4926;42.670;23.316;2023-06-01T00:12:42;11.07;;;9.98;;
9773;SDS011;4926;42.670;23.316;2023-06-01T00:15:09;13.00;;;10.10;;
9773;SDS011;4926;42.670;23.316;2023-06-01T00:48:44;12.00;;;9.65;;
9773;SDS011;4926;42.670;23.316;2023-06-01T00:51:11;10.00;;;8.98;;
9773;SDS011;4926;42.670;23.316;2023-06-01T00:53:40;11.30;;;9.63;;
9773;SDS011;4926;42.670;23.316;2023-06-01T00:56:07;10.30;;;9.20;;
9773;SDS011;4926;42.670;23.316;2023-06-01T00:58:38;13.23;;;9.43;;
9773;SDS011;4926;42.670;23.316;2023-06-01T01:01:06;12.18;;;9.95;;
9773;SDS011;4926;42.670;23.316;2023-06-01T01:03:45;12.93;;;8.60;;
9773;SDS011;4926;42.670;23.316;2023-06-01T01:06:16;12.00;;;9.02;;
9773;SDS011;4926;42.670;23.316;2023-06-01T01:08:54;12.23;;;9.32;;
9773;SDS011;4926;42.670;23.316;2023-06-01T01:11:37;10.57;;;8.95;;
9773;SDS011;4926;42.670;23.316;2023-06-01T01:14:14;13.05;;;9.07;;
9773;SDS011;4926;42.670;23.316;2023-06-01T01:16:49;12.68;;;9.18;;
9773;SDS011;4926;42.670;23.316;2023-06-01T01:22:34;9.02;;;8.00;;
9773;SDS011;4926;42.670;23.316;2023-06-01T01:25:20;11.52;;;8.15;;
9773;SDS011;4926;42.670;23.316;2023-06-01T01:27:59;10.98;;;8.65;;
9773;SDS011;4926;42.670;23.316;2023-06-01T01:30:40;9.90;;;8.80;;
9773;SDS011;4926;42.670;23.316;2023-06-01T01:33:13;9.93;;;8.65;;
9773;SDS011;4926;42.670;23.316;2023-06-01T01:35:40;11.38;;;8.80;;
9773;SDS011;4926;42.670;23.316;2023-06-01T01:38:08;11.07;;;8.95;;
9773;SDS011;4926;42.670;23.316;2023-06-01T01:40:34;11.15;;;9.05;;
9773;SDS011;4926;42.670;23.316;2023-06-01T01:43:01;13.20;;;8.95;;
9773;SDS011;4926;42.670;23.316;2023-06-01T01:45:28;11.35;;;9.48;;
9773;SDS011;4926;42.670;23.316;2023-06-01T01:47:58;11.25;;;9.68;;
9773;SDS011;4926;42.670;23.316;2023-06-01T01:50:38;11.10;;;9.20;;
9773;SDS011;4926;42.670;23.316;2023-06-01T01:53:11;11.13;;;9.18;;
9773;SDS011;4926;42.670;23.316;2023-06-01T01:55:39;11.18;;;9.48;;
9773;SDS011;4926;42.670;23.316;2023-06-01T01:58:07;12.55;;;10.05;;
9773;SDS011;4926;42.670;23.316;2023-06-01T02:00:34;12.57;;;9.65;;
9773;SDS011;4926;42.670;23.316;2023-06-01T02:03:14;14.77;;;11.07;;
9773;SDS011;4926;42.670;23.316;2023-06-01T02:05:41;14.18;;;10.88;;
9773;SDS011;4926;42.670;23.316;2023-06-01T02:08:08;13.98;;;11.65;;
9773;SDS011;4926;42.670;23.316;2023-06-01T02:10:37;16.48;;;12.77;;
9773;SDS011;4926;42.670;23.316;2023-06-01T02:13:03;13.88;;;11.13;;
9773;SDS011;4926;42.670;23.316;2023-06-01T02:15:30;17.10;;;12.48;;
9773;SDS011;4926;42.670;23.316;2023-06-01T02:17:59;15.45;;;12.50;;
9773;SDS011;4926;42.670;23.316;2023-06-01T02:20:28;21.58;;;13.32;;
9773;SDS011;4926;42.670;23.316;2023-06-01T02:22:55;19.73;;;13.75;;
9773;SDS011;4926;42.670;23.316;2023-06-01T02:25:21;21.38;;;13.15;;
9773;SDS011;4926;42.670;23.316;2023-06-01T02:27:48;20.00;;;13.95;;
9773;SDS011;4926;42.670;23.316;2023-06-01T02:30:19;77.38;;;15.35;;
9773;SDS011;4926;42.670;23.316;2023-06-01T02:32:46;23.48;;;14.93;;
9773;SDS011;4926;42.670;23.316;2023-06-01T02:35:14;25.52;;;15.48;;
9773;SDS011;4926;42.670;23.316;2023-06-01T02:37:42;28.55;;;16.63;;
9773;SDS011;4926;42.670;23.316;2023-06-01T02:40:11;20.17;;;16.25;;
9773;SDS011;4926;42.670;23.316;2023-06-01T02:42:37;38.25;;;16.52;;
9773;SDS011;4926;42.670;23.316;2023-06-01T02:45:07;308.73;;;21.38;;
9773;SDS011;4926;42.670;23.316;2023-06-01T02:47:34;40.80;;;17.38;;
9773;SDS011;4926;42.670;23.316;2023-06-01T02:50:04;482.58;;;30.00;;
9773;SDS011;4926;42.670;23.316;2023-06-01T02:52:31;191.60;;;21.90;;
9773;SDS011;4926;42.670;23.316;2023-06-01T02:55:01;69.68;;;19.15;;
9773;SDS011;4926;42.670;23.316;2023-06-01T02:57:34;25.10;;;17.95;;
9773;SDS011;4926;42.670;23.316;2023-06-01T03:00:04;31.15;;;18.38;;
9773;SDS011;4926;42.670;23.316;2023-06-01T03:02:40;27.08;;;18.55;;
9773;SDS011;4926;42.670;23.316;2023-06-01T03:05:07;24.00;;;17.88;;
9773;SDS011;4926;42.670;23.316;2023-06-01T03:07:34;24.10;;;18.77;;
9773;SDS011;4926;42.670;23.316;2023-06-01T03:10:02;23.50;;;16.63;;
9773;SDS011;4926;42.670;23.316;2023-06-01T03:12:31;20.08;;;16.20;;
9773;SDS011;4926;42.670;23.316;2023-06-01T03:15:00;21.45;;;16.90;;
9773;SDS011;4926;42.670;23.316;2023-06-01T03:17:29;21.20;;;16.67;;
9773;SDS011;4926;42.670;23.316;2023-06-01T03:19:56;24.88;;;16.58;;
9773;SDS011;4926;42.670;23.316;2023-06-01T03:22:24;21.80;;;15.35;;
9773;SDS011;4926;42.670;23.316;2023-06-01T03:24:51;17.05;;;14.50;;
9773;SDS011;4926;42.670;23.316;2023-06-01T03:27:21;16.27;;;14.45;;
9773;SDS011;4926;42.670;23.316;2023-06-01T03:29:50;17.25;;;12.98;;
9773;SDS011;4926;42.670;23.316;2023-06-01T03:32:17;17.58;;;13.00;;
9773;SDS011;4926;42.670;23.316;2023-06-01T03:34:46;15.07;;;13.40;;
9773;SDS011;4926;42.670;23.316;2023-06-01T03:37:16;15.60;;;12.18;;
9773;SDS011;4926;42.670;23.316;2023-06-01T03:39:43;14.40;;;12.25;;
9773;SDS011;4926;42.670;23.316;2023-06-01T03:42:10;12.88;;;11.48;;
9773;SDS011;4926;42.670;23.316;2023-06-01T03:44:40;11.75;;;10.45;;
9773;SDS011;4926;42.670;23.316;2023-06-01T03:47:09;11.85;;;10.52;;
9773;SDS011;4926;42.670;23.316;2023-06-01T03:49:39;12.05;;;10.15;;
9773;SDS011;4926;42.670;23.316;2023-06-01T03:52:06;12.15;;;9.35;;
9773;SDS011;4926;42.670;23.316;2023-06-01T03:54:36;10.10;;;9.07;;
9773;SDS011;4926;42.670;23.316;2023-06-01T03:57:02;11.93;;;9.90;;
9773;SDS011;4926;42.670;23.316;2023-06-01T03:59:32;13.63;;;10.32;;
9773;SDS011;4926;42.670;23.316;2023-06-01T04:02:02;13.57;;;10.40;;
9773;SDS011;4926;42.670;23.316;2023-06-01T04:04:30;13.63;;;11.38;;
9773;SDS011;4926;42.670;23.316;2023-06-01T04:06:57;12.95;;;11.23;;
9773;SDS011;4926;42.670;23.316;2023-06-01T04:09:26;15.18;;;13.18;;
9773;SDS011;4926;42.670;23.316;2023-06-01T04:11:52;21.98;;;14.63;;
9773;SDS011;4926;42.670;23.316;2023-06-01T04:14:22;17.77;;;13.82;;
9773;SDS011;4926;42.670;23.316;2023-06-01T04:16:49;17.85;;;12.48;;
9773;SDS011;4926;42.670;23.316;2023-06-01T04:19:22;15.93;;;11.77;;
9773;SDS011;4926;42.670;23.316;2023-06-01T04:21:49;14.32;;;11.55;;
9773;SDS011;4926;42.670;23.316;2023-06-01T04:24:15;14.50;;;11.75;;
9773;SDS011;4926;42.670;23.316;2023-06-01T04:26:42;21.20;;;12.70;;
9773;SDS011;4926;42.670;23.316;2023-06-01T04:29:10;15.85;;;11.98;;
9773;SDS011;4926;42.670;23.316;2023-06-01T04:31:40;14.98;;;11.95;;
9773;SDS011;4926;42.670;23.316;2023-06-01T04:34:06;12.95;;;11.43;;
9773;SDS011;4926;42.670;23.316;2023-06-01T04:36:36;15.32;;;11.35;;
9773;SDS011;4926;42.670;23.316;2023-06-01T04:39:04;16.92;;;11.32;;
9773;SDS011;4926;42.670;23.316;2023-06-01T04:41:31;13.73;;;11.75;;
9773;SDS011;4926;42.670;23.316;2023-06-01T04:44:00;15.02;;;12.13;;
9773;SDS011;4926;42.670;23.316;2023-06-01T04:46:30;15.70;;;12.27;;
9773;SDS011;4926;42.670;23.316;2023-06-01T04:48:57;15.88;;;12.48;;
9773;SDS011;4926;42.670;23.316;2023-06-01T04:51:28;15.32;;;13.00;;
9773;SDS011;4926;42.670;23.316;2023-06-01T04:54:03;16.95;;;13.98;;
9773;SDS011;4926;42.670;23.316;2023-06-01T04:56:29;19.63;;;14.93;;
9773;SDS011;4926;42.670;23.316;2023-06-01T04:58:59;16.90;;;13.50;;
9773;SDS011;4926;42.670;23.316;2023-06-01T05:01:26;18.35;;;15.00;;
9773;SDS011;4926;42.670;23.316;2023-06-01T05:04:00;16.70;;;14.90;;
9773;SDS011;4926;42.670;23.316;2023-06-01T05:06:26;16.75;;;14.43;;
9773;SDS011;4926;42.670;23.316;2023-06-01T05:08:55;17.15;;;13.90;;
9773;SDS011;4926;42.670;23.316;2023-06-01T05:11:24;18.35;;;14.13;;
9773;SDS011;4926;42.670;23.316;2023-06-01T05:13:51;17.67;;;13.60;;
9773;SDS011;4926;42.670;23.316;2023-06-01T05:16:26;18.27;;;15.07;;
9773;SDS011;4926;42.670;23.316;2023-06-01T05:18:55;16.85;;;14.60;;
9773;SDS011;4926;42.670;23.316;2023-06-01T05:21:22;16.38;;;14.57;;
9773;SDS011;4926;42.670;23.316;2023-06-01T05:23:49;18.02;;;14.35;;
9773;SDS011;4926;42.670;23.316;2023-06-01T05:26:15;16.45;;;14.07;;
9773;SDS011;4926;42.670;23.316;2023-06-01T05:28:46;20.60;;;14.98;;
9773;SDS011;4926;42.670;23.316;2023-06-01T05:31:13;18.98;;;14.88;;
9773;SDS011;4926;42.670;23.316;2023-06-01T05:33:40;19.13;;;15.02;;
9773;SDS011;4926;42.670;23.316;2023-06-01T05:36:07;17.88;;;13.38;;
9773;SDS011;4926;42.670;23.316;2023-06-01T05:38:36;17.27;;;15.48;;
9773;SDS011;4926;42.670;23.316;2023-06-01T05:41:03;21.35;;;16.00;;
9773;SDS011;4926;42.670;23.316;2023-06-01T05:43:30;18.13;;;14.18;;
9773;SDS011;4926;42.670;23.316;2023-06-01T05:45:58;15.90;;;13.13;;
9773;SDS011;4926;42.670;23.316;2023-06-01T05:48:25;20.30;;;14.73;;
9773;SDS011;4926;42.670;23.316;2023-06-01T05:50:54;20.58;;;14.65;;
9773;SDS011;4926;42.670;23.316;2023-06-01T05:53:21;19.27;;;15.02;;
9773;SDS011;4926;42.670;23.316;2023-06-01T05:55:50;20.40;;;16.15;;
9773;SDS011;4926;42.670;23.316;2023-06-01T05:58:17;21.83;;;16.00;;
9773;SDS011;4926;42.670;23.316;2023-06-01T06:00:44;18.25;;;14.48;;
9773;SDS011;4926;42.670;23.316;2023-06-01T06:03:12;23.45;;;16.77;;
9773;SDS011;4926;42.670;23.316;2023-06-01T06:05:41;18.40;;;14.35;;
9773;SDS011;4926;42.670;23.316;2023-06-01T06:08:10;22.63;;;16.30;;
9773;SDS011;4926;42.670;23.316;2023-06-01T06:10:39;23.15;;;16.33;;
9773;SDS011;4926;42.670;23.316;2023-06-01T06:13:06;24.00;;;17.35;;
9773;SDS011;4926;42.670;23.316;2023-06-01T06:15:33;23.77;;;17.02;;
9773;SDS011;4926;42.670;23.316;2023-06-01T06:18:00;22.63;;;16.13;;
9773;SDS011;4926;42.670;23.316;2023-06-01T06:20:28;23.05;;;17.33;;
9773;SDS011;4926;42.670;23.316;2023-06-01T06:22:54;28.02;;;18.40;;
9773;SDS011;4926;42.670;23.316;2023-06-01T06:25:21;23.10;;;18.27;;
9773;SDS011;4926;42.670;23.316;2023-06-01T06:27:51;22.98;;;18.38;;
9773;SDS011;4926;42.670;23.316;2023-06-01T06:30:28;21.00;;;17.67;;
9773;SDS011;4926;42.670;23.316;2023-06-01T06:32:54;23.45;;;19.75;;
9773;SDS011;4926;42.670;23.316;2023-06-01T06:35:21;27.90;;;21.40;;
9773;SDS011;4926;42.670;23.316;2023-06-01T06:37:49;24.17;;;19.02;;
9773;SDS011;4926;42.670;23.316;2023-06-01T06:40:21;24.45;;;19.13;;
9773;SDS011;4926;42.670;23.316;2023-06-01T06:42:48;26.35;;;19.92;;
9773;SDS011;4926;42.670;23.316;2023-06-01T06:45:15;23.55;;;19.35;;
9773;SDS011;4926;42.670;23.316;2023-06-01T06:47:44;21.45;;;16.98;;
9773;SDS011;4926;42.670;23.316;2023-06-01T06:50:12;24.88;;;18.20;;
9773;SDS011;4926;42.670;23.316;2023-06-01T06:52:38;21.75;;;17.63;;
9773;SDS011;4926;42.670;23.316;2023-06-01T06:55:07;20.92;;;17.13;;
9773;SDS011;4926;42.670;23.316;2023-06-01T06:57:34;20.05;;;17.45;;
9773;SDS011;4926;42.670;23.316;2023-06-01T07:00:01;24.23;;;17.30;;
9773;SDS011;4926;42.670;23.316;2023-06-01T07:02:32;22.40;;;17.75;;
9773;SDS011;4926;42.670;23.316;2023-06-01T07:04:59;21.08;;;18.35;;
9773;SDS011;4926;42.670;23.316;2023-06-01T07:07:26;28.00;;;19.15;;
9773;SDS011;4926;42.670;23.316;2023-06-01T07:09:52;21.80;;;17.48;;
9773;SDS011;4926;42.670;23.316;2023-06-01T07:12:23;21.30;;;18.00;;
9773;SDS011;4926;42.670;23.316;2023-06-01T07:14:51;20.67;;;16.42;;
9773;SDS011;4926;42.670;23.316;2023-06-01T07:17:18;21.15;;;16.85;;
9773;SDS011;4926;42.670;23.316;2023-06-01T07:19:45;18.33;;;16.42;;
9773;SDS011;4926;42.670;23.316;2023-06-01T07:22:11;23.52;;;17.50;;
9773;SDS011;4926;42.670;23.316;2023-06-01T07:24:38;19.42;;;17.42;;
9773;SDS011;4926;42.670;23.316;2023-06-01T07:27:08;22.08;;;16.83;;
9773;SDS011;4926;42.670;23.316;2023-06-01T07:29:36;24.38;;;17.20;;
9773;SDS011;4926;42.670;23.316;2023-06-01T07:32:08;19.10;;;15.68;;
9773;SDS011;4926;42.670;23.316;2023-06-01T07:34:35;20.30;;;17.55;;
9773;SDS011;4926;42.670;23.316;2023-06-01T07:37:02;29.10;;;19.05;;
9773;SDS011;4926;42.670;23.316;2023-06-01T07:39:32;19.55;;;16.17;;
9773;SDS011;4926;42.670;23.316;2023-06-01T07:41:59;20.38;;;16.67;;
9773;SDS011;4926;42.670;23.316;2023-06-01T07:44:26;22.50;;;15.73;;
9773;SDS011;4926;42.670;23.316;2023-06-01T07:46:56;22.15;;;15.27;;
9773;SDS011;4926;42.670;23.316;2023-06-01T07:49:23;18.92;;;15.38;;
9773;SDS011;4926;42.670;23.316;2023-06-01T07:51:50;19.38;;;16.40;;
9773;SDS011;4926;42.670;23.316;2023-06-01T07:54:27;20.73;;;16.92;;
9773;SDS011;4926;42.670;23.316;2023-06-01T07:56:54;21.38;;;15.55;;
9773;SDS011;4926;42.670;23.316;2023-06-01T07:59:22;24.55;;;15.63;;
9773;SDS011;4926;42.670;23.316;2023-06-01T08:01:48;19.58;;;15.57;;
9773;SDS011;4926;42.670;23.316;2023-06-01T08:04:16;23.13;;;15.48;;
9773;SDS011;4926;42.670;23.316;2023-06-01T08:06:45;16.35;;;14.13;;
9773;SDS011;4926;42.670;23.316;2023-06-01T08:09:12;18.83;;;15.02;;
9773;SDS011;4926;42.670;23.316;2023-06-01T08:11:39;20.67;;;15.70;;
9773;SDS011;4926;42.670;23.316;2023-06-01T08:14:08;21.38;;;15.57;;
9773;SDS011;4926;42.670;23.316;2023-06-01T08:16:36;19.88;;;15.95;;
9773;SDS011;4926;42.670;23.316;2023-06-01T08:19:12;18.63;;;14.57;;
9773;SDS011;4926;42.670;23.316;2023-06-01T08:21:42;21.20;;;15.10;;
9773;SDS011;4926;42.670;23.316;2023-06-01T08:24:10;21.33;;;15.95;;
9773;SDS011;4926;42.670;23.316;2023-06-01T08:26:38;18.55;;;15.70;;
9773;SDS011;4926;42.670;23.316;2023-06-01T08:29:07;19.23;;;15.43;;
9773;SDS011;4926;42.670;23.316;2023-06-01T08:31:39;18.63;;;15.73;;
9773;SDS011;4926;42.670;23.316;2023-06-01T08:34:06;21.60;;;16.92;;
9773;SDS011;4926;42.670;23.316;2023-06-01T08:36:33;21.38;;;15.90;;
9773;SDS011;4926;42.670;23.316;2023-06-01T08:39:06;22.50;;;15.88;;
9773;SDS011;4926;42.670;23.316;2023-06-01T08:41:48;19.13;;;13.70;;
9773;SDS011;4926;42.670;23.316;2023-06-01T08:44:26;16.90;;;13.55;;
9773;SDS011;4926;42.670;23.316;2023-06-01T08:46:53;15.70;;;12.52;;
9773;SDS011;4926;42.670;23.316;2023-06-01T08:49:23;19.05;;;13.18;;
9773;SDS011;4926;42.670;23.316;2023-06-01T08:51:53;18.27;;;13.60;;
9773;SDS011;4926;42.670;23.316;2023-06-01T08:54:24;20.10;;;14.55;;
9773;SDS011;4926;42.670;23.316;2023-06-01T08:56:51;19.90;;;13.90;;
9773;SDS011;4926;42.670;23.316;2023-06-01T08:59:21;16.00;;;14.27;;
9773;SDS011;4926;42.670;23.316;2023-06-01T09:01:48;16.50;;;13.93;;
9773;SDS011;4926;42.670;23.316;2023-06-01T09:04:15;18.85;;;13.55;;
9773;SDS011;4926;42.670;23.316;2023-06-01T09:06:44;16.73;;;13.43;;
9773;SDS011;4926;42.670;23.316;2023-06-01T09:09:11;14.55;;;12.52;;
9773;SDS011;4926;42.670;23.316;2023-06-01T09:11:40;21.50;;;13.63;;
9773;SDS011;4926;42.670;23.316;2023-06-01T09:14:19;18.30;;;13.18;;
9773;SDS011;4926;42.670;23.316;2023-06-01T09:16:50;16.95;;;12.77;;
9773;SDS011;4926;42.670;23.316;2023-06-01T09:19:17;16.13;;;12.13;;
9773;SDS011;4926;42.670;23.316;2023-06-01T09:21:58;12.43;;;10.27;;
9773;SDS011;4926;42.670;23.316;2023-06-01T09:24:25;14.13;;;9.70;;
9773;SDS011;4926;42.670;23.316;2023-06-01T09:26:59;15.75;;;11.48;;
9773;SDS011;4926;42.670;23.316;2023-06-01T09:29:26;11.90;;;10.27;;
9773;SDS011;4926;42.670;23.316;2023-06-01T09:31:53;23.38;;;10.15;;
9773;SDS011;4926;42.670;23.316;2023-06-01T09:34:22;14.77;;;9.00;;
9773;SDS011;4926;42.670;23.316;2023-06-01T09:36:50;9.30;;;6.47;;
9773;SDS011;4926;42.670;23.316;2023-06-01T09:39:19;12.98;;;8.32;;
9773;SDS011;4926;42.670;23.316;2023-06-01T09:41:55;11.52;;;8.00;;
9773;SDS011;4926;42.670;23.316;2023-06-01T09:44:27;7.68;;;6.20;;
9773;SDS011;4926;42.670;23.316;2023-06-01T09:46:55;12.23;;;8.07;;
9773;SDS011;4926;42.670;23.316;2023-06-01T09:49:23;11.43;;;8.23;;
9773;SDS011;4926;42.670;23.316;2023-06-01T09:51:51;14.07;;;9.05;;
9773;SDS011;4926;42.670;23.316;2023-06-01T09:54:25;10.60;;;7.50;;
9773;SDS011;4926;42.670;23.316;2023-06-01T09:56:54;10.85;;;7.32;;
9773;SDS011;4926;42.670;23.316;2023-06-01T09:59:26;12.52;;;8.55;;
9773;SDS011;4926;42.670;23.316;2023-06-01T10:01:55;14.40;;;9.23;;
9773;SDS011;4926;42.670;23.316;2023-06-01T10:04:26;10.40;;;8.85;;
9773;SDS011;4926;42.670;23.316;2023-06-01T10:06:54;9.57;;;8.38;;
9773;SDS011;4926;42.670;23.316;2023-06-01T10:09:23;8.07;;;6.95;;
9773;SDS011;4926;42.670;23.316;2023-06-01T10:11:51;10.48;;;7.47;;
9773;SDS011;4926;42.670;23.316;2023-06-01T10:14:23;9.07;;;6.53;;
9773;SDS011;4926;42.670;23.316;2023-06-01T10:16:53;11.07;;;6.47;;
9773;SDS011;4926;42.670;23.316;2023-06-01T10:19:21;7.05;;;5.50;;
9773;SDS011;4926;42.670;23.316;2023-06-01T10:21:48;6.75;;;5.95;;
9773;SDS011;4926;42.670;23.316;2023-06-01T10:24:16;9.38;;;6.10;;
9773;SDS011;4926;42.670;23.316;2023-06-01T10:26:45;8.52;;;5.75;;
9773;SDS011;4926;42.670;23.316;2023-06-01T10:29:18;10.95;;;6.07;;
9773;SDS011;4926;42.670;23.316;2023-06-01T10:31:45;6.10;;;5.38;;
9773;SDS011;4926;42.670;23.316;2023-06-01T10:34:14;7.22;;;5.00;;
9773;SDS011;4926;42.670;23.316;2023-06-01T10:39:43;5.68;;;5.15;;
9773;SDS011;4926;42.670;23.316;2023-06-01T10:48:03;7.22;;;5.03;;
9773;SDS011;4926;42.670;23.316;2023-06-01T10:50:32;7.40;;;5.60;;
9773;SDS011;4926;42.670;23.316;2023-06-01T10:58:45;9.55;;;6.53;;
9773;SDS011;4926;42.670;23.316;2023-06-01T11:01:19;7.75;;;5.95;;
9773;SDS011;4926;42.670;23.316;2023-06-01T11:03:47;8.13;;;6.38;;
9773;SDS011;4926;42.670;23.316;2023-06-01T11:06:28;7.47;;;6.30;;
9773;SDS011;4926;42.670;23.316;2023-06-01T11:08:57;6.78;;;6.07;;
9773;SDS011;4926;42.670;23.316;2023-06-01T11:14:25;6.72;;;4.97;;
9773;SDS011;4926;42.670;23.316;2023-06-01T11:16:54;5.47;;;4.97;;
9773;SDS011;4926;42.670;23.316;2023-06-01T11:19:24;9.38;;;5.40;;
9773;SDS011;4926;42.670;23.316;2023-06-01T11:21:57;5.45;;;4.75;;
9773;SDS011;4926;42.670;23.316;2023-06-01T11:24:31;8.05;;;4.95;;
9773;SDS011;4926;42.670;23.316;2023-06-01T11:27:00;5.90;;;4.40;;
9773;SDS011;4926;42.670;23.316;2023-06-01T11:29:32;5.95;;;5.18;;
9773;SDS011;4926;42.670;23.316;2023-06-01T11:32:00;5.00;;;4.50;;
9773;SDS011;4926;42.670;23.316;2023-06-01T11:34:30;8.20;;;5.03;;
9773;SDS011;4926;42.670;23.316;2023-06-01T11:37:00;8.30;;;5.07;;
9773;SDS011;4926;42.670;23.316;2023-06-01T11:39:28;7.25;;;5.05;;
9773;SDS011;4926;42.670;23.316;2023-06-01T11:42:05;7.63;;;4.95;;
9773;SDS011;4926;42.670;23.316;2023-06-01T11:44:37;7.20;;;4.25;;
9773;SDS011;4926;42.670;23.316;2023-06-01T11:47:05;14.75;;;9.35;;
9773;SDS011;4926;42.670;23.316;2023-06-01T11:49:39;7.38;;;4.60;;
9773;SDS011;4926;42.670;23.316;2023-06-01T11:52:09;4.40;;;3.97;;
9773;SDS011;4926;42.670;23.316;2023-06-01T11:54:36;6.15;;;4.25;;
9773;SDS011;4926;42.670;23.316;2023-06-01T11:57:03;6.25;;;3.85;;
9773;SDS011;4926;42.670;23.316;2023-06-01T11:59:36;9.02;;;4.38;;
9773;SDS011;4926;42.670;23.316;2023-06-01T12:02:17;6.07;;;4.90;;
9773;SDS011;4926;42.670;23.316;2023-06-01T12:04:55;9.05;;;4.30;;
9773;SDS011;4926;42.670;23.316;2023-06-01T12:07:25;8.18;;;4.80;;
9773;SDS011;4926;42.670;23.316;2023-06-01T12:09:52;5.55;;;4.70;;
9773;SDS011;4926;42.670;23.316;2023-06-01T12:12:20;7.13;;;5.10;;
9773;SDS011;4926;42.670;23.316;2023-06-01T12:14:59;7.38;;;5.45;;
9773;SDS011;4926;42.670;23.316;2023-06-01T12:17:26;6.53;;;5.13;;
9773;SDS011;4926;42.670;23.316;2023-06-01T12:20:11;9.38;;;4.93;;
9773;SDS011;4926;42.670;23.316;2023-06-01T12:22:39;6.00;;;5.22;;
9773;SDS011;4926;42.670;23.316;2023-06-01T12:25:07;8.52;;;5.15;;
9773;SDS011;4926;42.670;23.316;2023-06-01T12:27:34;7.80;;;5.80;;
9773;SDS011;4926;42.670;23.316;2023-06-01T12:30:03;9.27;;;6.47;;
9773;SDS011;4926;42.670;23.316;2023-06-01T12:32:45;8.10;;;6.13;;
9773;SDS011;4926;42.670;23.316;2023-06-01T12:35:12;7.40;;;6.53;;
9773;SDS011;4926;42.670;23.316;2023-06-01T12:37:42;8.93;;;6.75;;
9773;SDS011;4926;42.670;23.316;2023-06-01T12:40:09;9.07;;;7.25;;
9773;SDS011;4926;42.670;23.316;2023-06-01T12:42:37;10.27;;;7.07;;
9773;SDS011;4926;42.670;23.316;2023-06-01T12:45:06;6.95;;;6.25;;
9773;SDS011;4926;42.670;23.316;2023-06-01T12:47:36;9.45;;;6.50;;
9773;SDS011;4926;42.670;23.316;2023-06-01T12:50:07;7.93;;;6.15;;
9773;SDS011;4926;42.670;23.316;2023-06-01T12:52:36;10.10;;;6.47;;
9773;SDS011;4926;42.670;23.316;2023-06-01T12:55:05;8.32;;;6.38;;
9773;SDS011;4926;42.670;23.316;2023-06-01T12:57:33;7.95;;;5.28;;
9773;SDS011;4926;42.670;23.316;2023-06-01T13:00:02;6.38;;;5.47;;
9773;SDS011;4926;42.670;23.316;2023-06-01T13:02:30;9.18;;;6.35;;
9773;SDS011;4926;42.670;23.316;2023-06-01T13:04:56;7.97;;;5.68;;
9773;SDS011;4926;42.670;23.316;2023-06-01T13:07:24;10.00;;;6.03;;
9773;SDS011;4926;42.670;23.316;2023-06-01T13:09:50;9.27;;;5.72;;
9773;SDS011;4926;42.670;23.316;2023-06-01T13:12:20;7.72;;;5.35;;
9773;SDS011;4926;42.670;23.316;2023-06-01T13:14:48;7.45;;;5.47;;
9773;SDS011;4926;42.670;23.316;2023-06-01T13:17:14;7.05;;;5.63;;
9773;SDS011;4926;42.670;23.316;2023-06-01T13:19:41;5.95;;;4.72;;
9773;SDS011;4926;42.670;23.316;2023-06-01T13:22:11;7.70;;;5.13;;
9773;SDS011;4926;42.670;23.316;2023-06-01T13:24:38;6.30;;;4.65;;
9773;SDS011;4926;42.670;23.316;2023-06-01T13:27:09;7.32;;;4.43;;
9773;SDS011;4926;42.670;23.316;2023-06-01T13:29:38;5.13;;;3.67;;
9773;SDS011;4926;42.670;23.316;2023-06-01T13:32:05;3.90;;;3.40;;
9773;SDS011;4926;42.670;23.316;2023-06-01T13:34:32;4.18;;;3.35;;
9773;SDS011;4926;42.670;23.316;2023-06-01T13:37:02;5.53;;;3.08;;
9773;SDS011;4926;42.670;23.316;2023-06-01T13:39:29;4.50;;;3.35;;
9773;SDS011;4926;42.670;23.316;2023-06-01T13:41:59;3.95;;;2.92;;
9773;SDS011;4926;42.670;23.316;2023-06-01T13:44:25;6.97;;;3.45;;
9773;SDS011;4926;42.670;23.316;2023-06-01T13:46:54;4.07;;;3.20;;
9773;SDS011;4926;42.670;23.316;2023-06-01T13:49:21;8.05;;;3.22;;
9773;SDS011;4926;42.670;23.316;2023-06-01T13:51:48;5.50;;;3.22;;
9773;SDS011;4926;42.670;23.316;2023-06-01T13:54:15;3.45;;;2.75;;
9773;SDS011;4926;42.670;23.316;2023-06-01T13:56:43;6.82;;;3.33;;
9773;SDS011;4926;42.670;23.316;2023-06-01T13:59:10;4.25;;;3.10;;
9773;SDS011;4926;42.670;23.316;2023-06-01T14:01:37;4.97;;;3.42;;
9773;SDS011;4926;42.670;23.316;2023-06-01T14:04:08;4.85;;;3.40;;
9773;SDS011;4926;42.670;23.316;2023-06-01T14:06:34;4.15;;;3.75;;
9773;SDS011;4926;42.670;23.316;2023-06-01T14:09:01;6.40;;;3.50;;
9773;SDS011;4926;42.670;23.316;2023-06-01T14:11:28;6.00;;;3.70;;
9773;SDS011;4926;42.670;23.316;2023-06-01T14:13:54;6.32;;;3.70;;
9773;SDS011;4926;42.670;23.316;2023-06-01T14:16:21;6.57;;;4.13;;
9773;SDS011;4926;42.670;23.316;2023-06-01T14:18:48;6.95;;;4.63;;
9773;SDS011;4926;42.670;23.316;2023-06-01T14:21:16;7.18;;;4.00;;
9773;SDS011;4926;42.670;23.316;2023-06-01T14:23:43;7.13;;;5.90;;
9773;SDS011;4926;42.670;23.316;2023-06-01T14:26:10;16.95;;;11.40;;
9773;SDS011;4926;42.670;23.316;2023-06-01T14:28:36;5.78;;;4.50;;
9773;SDS011;4926;42.670;23.316;2023-06-01T14:31:06;7.15;;;4.68;;
9773;SDS011;4926;42.670;23.316;2023-06-01T14:33:33;6.30;;;5.05;;
9773;SDS011;4926;42.670;23.316;2023-06-01T14:36:00;10.60;;;5.97;;
9773;SDS011;4926;42.670;23.316;2023-06-01T14:38:28;8.15;;;5.20;;
9773;SDS011;4926;42.670;23.316;2023-06-01T14:40:55;8.40;;;4.70;;
9773;SDS011;4926;42.670;23.316;2023-06-01T14:43:21;5.60;;;4.72;;
9773;SDS011;4926;42.670;23.316;2023-06-01T14:45:48;5.07;;;4.45;;
9773;SDS011;4926;42.670;23.316;2023-06-01T14:48:15;6.70;;;4.65;;
9773;SDS011;4926;42.670;23.316;2023-06-01T14:50:41;7.60;;;4.75;;
9773;SDS011;4926;42.670;23.316;2023-06-01T14:53:08;9.95;;;5.10;;
9773;SDS011;4926;42.670;23.316;2023-06-01T14:55:36;6.00;;;4.78;;
9773;SDS011;4926;42.670;23.316;2023-06-01T14:58:03;9.90;;;5.38;;
9773;SDS011;4926;42.670;23.316;2023-06-01T15:00:30;7.38;;;5.40;;
9773;SDS011;4926;42.670;23.316;2023-06-01T15:02:56;7.50;;;5.18;;
9773;SDS011;4926;42.670;23.316;2023-06-01T15:05:23;7.20;;;5.07;;
9773;SDS011;4926;42.670;23.316;2023-06-01T15:07:49;8.35;;;5.32;;
9773;SDS011;4926;42.670;23.316;2023-06-01T15:10:16;7.75;;;5.68;;
9773;SDS011;4926;42.670;23.316;2023-06-01T15:12:44;11.25;;;6.75;;
9773;SDS011;4926;42.670;23.316;2023-06-01T15:15:11;9.25;;;7.35;;
9773;SDS011;4926;42.670;23.316;2023-06-01T15:17:38;9.05;;;5.65;;
9773;SDS011;4926;42.670;23.316;2023-06-01T15:20:05;28.15;;;16.30;;
9773;SDS011;4926;42.670;23.316;2023-06-01T15:22:33;12.02;;;6.10;;
9773;SDS011;4926;42.670;23.316;2023-06-01T15:25:01;7.53;;;5.35;;
9773;SDS011;4926;42.670;23.316;2023-06-01T15:27:27;10.25;;;6.50;;
9773;SDS011;4926;42.670;23.316;2023-06-01T15:29:57;13.55;;;9.65;;
9773;SDS011;4926;42.670;23.316;2023-06-01T15:32:24;6.97;;;5.05;;
9773;SDS011;4926;42.670;23.316;2023-06-01T15:34:51;9.80;;;5.55;;
9773;SDS011;4926;42.670;23.316;2023-06-01T15:37:18;8.90;;;5.50;;
9773;SDS011;4926;42.670;23.316;2023-06-01T15:39:46;12.52;;;7.40;;
9773;SDS011;4926;42.670;23.316;2023-06-01T15:42:12;8.55;;;5.55;;
9773;SDS011;4926;42.670;23.316;2023-06-01T15:44:39;5.90;;;5.30;;
9773;SDS011;4926;42.670;23.316;2023-06-01T15:47:08;26.25;;;14.73;;